Time;durP1;ratioP1;P1;durP2;ratioP2;P2;SDS_P1;SDS_P2;PMS_P1;PMS_P2;Temp;Humidity;BMP_temperature;BMP_pressure;BME280_temperature;BME280_humidity;BME280_pressure;Samples;Min_cycle;Max_cycle;Signal;HPM_P1;HPM_P2
2021/07/06 00:00:47;;;;;;;1.65;0.75;;;;;;;;;;7052927;28;20118;-80
2021/07/06 00:04:08;;;;;;;2.15;0.85;;;;;;;;;;7052385;28;20134;-80
2021/07/06 00:07:28;;;;;;;2.45;0.70;;;;;;;;;;7052612;28;20096;-80
2021/07/06 00:10:49;;;;;;;0.85;0.80;;;;;;;;;;7048720;28;20138;-81
2021/07/06 00:14:09;;;;;;;1.38;0.75;;;;;;;;;;7052999;28;20386;-79
2021/07/06 00:17:30;;;;;;;0.52;0.50;;;;;;;;;;7052585;28;20051;-80
2021/07/06 00:20:50;;;;;;;1.40;0.60;;;;;;;;;;7051746;28;20044;-80
2021/07/06 00:24:11;;;;;;;0.80;0.68;;;;;;;;;;7052321;28;20138;-79
2021/07/06 00:27:31;;;;;;;1.08;0.65;;;;;;;;;;7051439;28;20124;-79
2021/07/06 00:30:52;;;;;;;1.30;0.80;;;;;;;;;;7051779;28;20047;-80
2021/07/06 00:34:12;;;;;;;1.27;0.90;;;;;;;;;;7051915;28;20572;-80
2021/07/06 00:37:33;;;;;;;1.25;0.75;;;;;;;;;;7051852;28;20040;-80
2021/07/06 00:40:56;;;;;;;1.27;0.68;;;;;;;;;;7051500;28;20047;-80
2021/07/06 00:44:19;;;;;;;0.70;0.70;;;;;;;;;;7052079;28;20481;-80
2021/07/06 00:47:40;;;;;;;0.77;0.75;;;;;;;;;;7051405;28;20191;-80
2021/07/06 00:51:01;;;;;;;1.58;0.85;;;;;;;;;;7052050;28;20172;-80
2021/07/06 00:54:22;;;;;;;0.68;0.63;;;;;;;;;;7049639;28;20047;-80
2021/07/06 00:57:43;;;;;;;1.42;0.80;;;;;;;;;;7051417;28;20066;-80
2021/07/06 01:01:04;;;;;;;1.55;0.70;;;;;;;;;;7051086;28;20047;-80
2021/07/06 01:04:24;;;;;;;1.27;0.60;;;;;;;;;;7051243;28;20112;-80
2021/07/06 01:07:45;;;;;;;2.17;0.73;;;;;;;;;;7050754;28;20039;-80
2021/07/06 01:11:06;;;;;;;1.10;0.50;;;;;;;;;;7051127;28;20043;-81
2021/07/06 01:14:27;;;;;;;0.60;0.60;;;;;;;;;;7050982;28;20042;-80
2021/07/06 01:18:11;;;;;;;0.50;0.50;;;;;;;;;;7051080;28;20073;-80
2021/07/06 01:21:31;;;;;;;1.98;0.80;;;;;;;;;;7051154;28;20122;-80
2021/07/06 01:24:52;;;;;;;1.38;0.73;;;;;;;;;;7051177;28;20074;-80
2021/07/06 01:28:12;;;;;;;0.85;0.60;;;;;;;;;;7034242;22;20063;-81
2021/07/06 01:31:33;;;;;;;1.52;0.60;;;;;;;;;;6995147;28;20044;-81
2021/07/06 01:34:53;;;;;;;0.88;0.63;;;;;;;;;;6994989;28;20072;-81
2021/07/06 01:38:13;;;;;;;0.77;0.75;;;;;;;;;;6998268;28;20036;-81
2021/07/06 01:41:39;;;;;;;0.60;0.60;;;;;;;;;;7000130;28;20139;-80
2021/07/06 01:45:11;;;;;;;0.50;0.50;;;;;;;;;;6970104;28;20125;-80
2021/07/06 01:48:31;;;;;;;1.13;0.63;;;;;;;;;;6999580;28;20052;-81
2021/07/06 01:51:52;;;;;;;1.08;0.60;;;;;;;;;;6996970;28;20053;-82
2021/07/06 01:55:14;;;;;;;0.50;0.50;;;;;;;;;;6999976;28;20057;-81
2021/07/06 01:58:36;;;;;;;0.45;0.45;;;;;;;;;;6985365;28;20045;-81
2021/07/06 02:01:56;;;;;;;0.63;0.60;;;;;;;;;;6999129;28;20048;-80
2021/07/06 02:05:17;;;;;;;0.57;0.57;;;;;;;;;;6998637;28;20052;-80
2021/07/06 02:08:37;;;;;;;3.65;0.63;;;;;;;;;;6999348;28;20122;-81
2021/07/06 02:11:57;;;;;;;2.78;0.60;;;;;;;;;;6996529;28;20094;-81
2021/07/06 02:15:18;;;;;;;0.80;0.70;;;;;;;;;;6999310;28;20084;-81
2021/07/06 02:18:39;;;;;;;1.17;0.85;;;;;;;;;;6997740;28;20423;-81
2021/07/06 02:21:59;;;;;;;2.40;0.60;;;;;;;;;;6997988;28;20061;-80
2021/07/06 02:25:21;;;;;;;0.57;0.57;;;;;;;;;;6998189;28;20044;-81
2021/07/06 02:28:41;;;;;;;2.00;0.57;;;;;;;;;;6998805;28;20408;-80
2021/07/06 02:32:02;;;;;;;3.55;0.90;;;;;;;;;;6997142;28;20494;-80
2021/07/06 02:35:26;;;;;;;0.60;0.60;;;;;;;;;;6997678;28;20376;-80
2021/07/06 02:38:47;;;;;;;0.82;0.60;;;;;;;;;;6997033;28;20049;-81
2021/07/06 02:42:08;;;;;;;0.70;0.57;;;;;;;;;;7002649;28;20041;-80
2021/07/06 02:45:29;;;;;;;0.55;0.50;;;;;;;;;;6998948;28;20091;-81
2021/07/06 02:48:50;;;;;;;1.85;0.50;;;;;;;;;;6996933;28;20486;-81
2021/07/06 02:52:10;;;;;;;0.50;0.50;;;;;;;;;;6999649;28;20040;-80
2021/07/06 02:55:31;;;;;;;0.68;0.50;;;;;;;;;;7003336;28;20048;-80
2021/07/06 02:58:51;;;;;;;0.82;0.50;;;;;;;;;;6998648;28;20174;-80
2021/07/06 03:02:11;;;;;;;0.60;0.60;;;;;;;;;;7009555;28;20559;-80
2021/07/06 03:05:32;;;;;;;0.60;0.60;;;;;;;;;;6998258;28;20084;-81
2021/07/06 03:08:55;;;;;;;3.13;0.50;;;;;;;;;;6996023;28;20056;-80
2021/07/06 03:12:16;;;;;;;2.95;0.60;;;;;;;;;;6996807;28;20131;-80
2021/07/06 03:15:37;;;;;;;0.55;0.55;;;;;;;;;;6997906;28;20048;-80
2021/07/06 03:18:57;;;;;;;0.50;0.50;;;;;;;;;;6998014;28;20131;-80
2021/07/06 03:22:18;;;;;;;0.50;0.50;;;;;;;;;;6998013;28;20437;-80
2021/07/06 03:25:40;;;;;;;0.70;0.50;;;;;;;;;;6997743;28;20132;-80
2021/07/06 03:29:01;;;;;;;0.60;0.60;;;;;;;;;;6997330;28;20485;-80
2021/07/06 03:32:21;;;;;;;0.40;0.40;;;;;;;;;;6997716;28;20051;-81
2021/07/06 03:35:42;;;;;;;0.60;0.60;;;;;;;;;;6995403;28;20044;-80
2021/07/06 03:39:02;;;;;;;0.43;0.43;;;;;;;;;;6996924;28;20494;-80
2021/07/06 03:42:23;;;;;;;0.50;0.43;;;;;;;;;;6997015;28;20533;-81
2021/07/06 03:45:43;;;;;;;2.92;0.60;;;;;;;;;;6997284;28;20088;-81
2021/07/06 03:49:04;;;;;;;0.50;0.50;;;;;;;;;;6996983;28;20052;-81
2021/07/06 03:52:24;;;;;;;0.60;0.60;;;;;;;;;;6996741;28;20048;-81
2021/07/06 03:55:45;;;;;;;0.40;0.40;;;;;;;;;;6996955;28;20044;-81
2021/07/06 03:59:05;;;;;;;0.50;0.50;;;;;;;;;;6994784;28;20105;-81
2021/07/06 04:02:26;;;;;;;0.50;0.50;;;;;;;;;;7004368;28;20465;-81
2021/07/06 04:05:46;;;;;;;0.50;0.50;;;;;;;;;;6996960;28;20493;-80
2021/07/06 04:09:07;;;;;;;0.40;0.40;;;;;;;;;;6996634;28;20041;-80
2021/07/06 04:12:27;;;;;;;3.75;0.50;;;;;;;;;;6995515;28;20094;-80
2021/07/06 04:15:48;;;;;;;0.40;0.40;;;;;;;;;;6995890;28;20041;-81
2021/07/06 04:19:08;;;;;;;0.40;0.40;;;;;;;;;;6993719;28;20055;-81
2021/07/06 04:22:29;;;;;;;0.40;0.40;;;;;;;;;;6996812;28;20052;-81
2021/07/06 04:25:49;;;;;;;0.47;0.47;;;;;;;;;;6995851;28;20060;-81
2021/07/06 04:29:10;;;;;;;0.80;0.55;;;;;;;;;;6996133;28;20134;-81
2021/07/06 04:32:30;;;;;;;0.50;0.50;;;;;;;;;;7006690;28;20044;-81
2021/07/06 04:35:50;;;;;;;0.77;0.77;;;;;;;;;;6995846;28;20147;-80
2021/07/06 04:39:11;;;;;;;0.70;0.70;;;;;;;;;;6996013;28;20041;-80
2021/07/06 04:42:32;;;;;;;0.70;0.70;;;;;;;;;;6995747;28;20040;-80
2021/07/06 04:45:52;;;;;;;1.75;1.30;;;;;;;;;;6994796;28;20064;-80
2021/07/06 04:49:12;;;;;;;1.60;1.50;;;;;;;;;;6995932;28;20041;-80
2021/07/06 04:52:33;;;;;;;1.52;1.42;;;;;;;;;;7007639;28;20076;-80
2021/07/06 04:55:53;;;;;;;1.58;1.50;;;;;;;;;;6993147;28;20136;-81
2021/07/06 04:59:14;;;;;;;1.40;1.30;;;;;;;;;;6994852;28;20131;-80
2021/07/06 05:02:34;;;;;;;1.27;1.25;;;;;;;;;;7008268;28;20040;-82
2021/07/06 05:05:55;;;;;;;2.45;1.30;;;;;;;;;;6984362;28;20044;-81
2021/07/06 05:09:15;;;;;;;1.48;1.38;;;;;;;;;;6976717;28;20146;-81
2021/07/06 05:12:36;;;;;;;1.40;1.30;;;;;;;;;;6993374;28;20072;-80
2021/07/06 05:15:56;;;;;;;1.80;1.40;;;;;;;;;;6997331;28;20055;-80
2021/07/06 05:19:17;;;;;;;1.67;1.38;;;;;;;;;;6995715;28;20136;-79
2021/07/06 05:22:37;;;;;;;1.63;1.52;;;;;;;;;;6996477;28;20056;-79
2021/07/06 05:25:58;;;;;;;1.42;1.33;;;;;;;;;;6994910;28;20050;-79
2021/07/06 05:29:18;;;;;;;1.40;1.30;;;;;;;;;;6995114;28;20139;-79
2021/07/06 05:32:39;;;;;;;1.38;1.30;;;;;;;;;;6993388;28;20052;-80
2021/07/06 05:35:59;;;;;;;1.30;1.30;;;;;;;;;;6995310;28;20140;-79
2021/07/06 05:39:20;;;;;;;1.60;1.50;;;;;;;;;;6996569;28;20045;-80
2021/07/06 05:42:41;;;;;;;1.40;1.30;;;;;;;;;;6988298;28;20116;-81
2021/07/06 05:46:02;;;;;;;1.23;1.23;;;;;;;;;;6994189;28;20136;-81
2021/07/06 05:49:22;;;;;;;1.38;1.35;;;;;;;;;;6991288;28;20044;-80
2021/07/06 05:52:44;;;;;;;1.33;1.30;;;;;;;;;;6994968;28;20103;-80
2021/07/06 05:56:04;;;;;;;1.48;1.38;;;;;;;;;;6996144;28;20045;-81
2021/07/06 05:59:25;;;;;;;1.60;1.50;;;;;;;;;;6997538;28;20067;-83
2021/07/06 06:02:46;;;;;;;1.95;1.58;;;;;;;;;;6994071;28;20094;-83
2021/07/06 06:06:08;;;;;;;1.30;1.30;;;;;;;;;;6994325;28;20052;-81
2021/07/06 06:09:29;;;;;;;1.20;1.20;;;;;;;;;;6994342;28;20033;-82
2021/07/06 06:12:49;;;;;;;2.85;1.58;;;;;;;;;;6993667;28;20064;-83
2021/07/06 06:16:09;;;;;;;1.48;1.40;;;;;;;;;;7004286;28;20044;-83
2021/07/06 06:19:30;;;;;;;2.55;1.60;;;;;;;;;;7011140;28;20071;-83
2021/07/06 06:22:50;;;;;;;1.60;1.50;;;;;;;;;;7011788;28;20052;-83
2021/07/06 06:26:11;;;;;;;1.40;1.30;;;;;;;;;;7016305;28;20080;-83
2021/07/06 06:29:32;;;;;;;1.50;1.40;;;;;;;;;;7007127;28;20048;-82
2021/07/06 06:32:55;;;;;;;1.42;1.33;;;;;;;;;;7016051;28;20086;-83
2021/07/06 06:36:15;;;;;;;1.52;1.48;;;;;;;;;;7015795;28;20044;-83
2021/07/06 06:39:36;;;;;;;2.20;1.40;;;;;;;;;;6998740;28;20105;-84
2021/07/06 06:42:56;;;;;;;3.72;1.48;;;;;;;;;;7016278;28;20119;-83
2021/07/06 06:46:17;;;;;;;1.50;1.40;;;;;;;;;;6998085;28;20144;-82
2021/07/06 06:49:37;;;;;;;10.35;0.73;;;;;;;;;;7007771;28;20133;-80
2021/07/06 06:52:57;;;;;;;1.88;0.75;;;;;;;;;;7007628;28;20044;-79
2021/07/06 06:56:18;;;;;;;4.43;0.63;;;;;;;;;;7006577;28;20057;-81
2021/07/06 06:59:38;;;;;;;1.52;0.90;;;;;;;;;;7016266;28;20047;-80
2021/07/06 07:02:59;;;;;;;1.98;1.27;;;;;;;;;;7009089;28;20082;-81
2021/07/06 07:06:19;;;;;;;3.72;1.20;;;;;;;;;;6997072;28;20147;-81
2021/07/06 07:09:40;;;;;;;4.55;1.20;;;;;;;;;;6997629;28;20040;-81
2021/07/06 07:13:00;;;;;;;4.18;1.27;;;;;;;;;;6997662;28;20442;-82
2021/07/06 07:16:21;;;;;;;2.30;1.40;;;;;;;;;;6996234;28;20417;-81
2021/07/06 07:19:42;;;;;;;5.70;1.48;;;;;;;;;;6995998;28;20037;-82
2021/07/06 07:23:02;;;;;;;4.25;1.40;;;;;;;;;;6997526;28;20520;-80
2021/07/06 07:26:22;;;;;;;4.43;1.35;;;;;;;;;;6996169;28;20569;-81
2021/07/06 07:29:43;;;;;;;4.00;1.92;;;;;;;;;;6997442;28;20371;-80
2021/07/06 07:33:03;;;;;;;3.28;1.65;;;;;;;;;;6997041;28;20083;-80
2021/07/06 07:36:24;;;;;;;2.17;1.30;;;;;;;;;;6997287;28;20048;-82
2021/07/06 07:39:45;;;;;;;3.78;1.83;;;;;;;;;;6997266;28;20052;-82
2021/07/06 07:43:06;;;;;;;7.05;1.95;;;;;;;;;;6995092;28;20072;-81
2021/07/06 07:46:27;;;;;;;2.50;1.58;;;;;;;;;;6995791;28;20048;-81
2021/07/06 07:49:47;;;;;;;5.55;1.60;;;;;;;;;;6996744;28;20071;-81
2021/07/06 07:53:08;;;;;;;2.70;1.92;;;;;;;;;;6995689;28;20040;-81
2021/07/06 07:56:28;;;;;;;4.55;1.90;;;;;;;;;;6988982;28;20494;-82
2021/07/06 07:59:53;;;;;;;4.28;1.55;;;;;;;;;;6992791;28;20103;-81
2021/07/06 08:03:13;;;;;;;4.45;1.75;;;;;;;;;;6997893;28;20046;-81
2021/07/06 08:06:34;;;;;;;5.35;1.60;;;;;;;;;;6995670;28;20048;-81
2021/07/06 08:09:54;;;;;;;2.95;1.60;;;;;;;;;;6992158;28;20098;-80
2021/07/06 08:13:16;;;;;;;7.45;1.73;;;;;;;;;;6994143;28;20085;-80
2021/07/06 08:16:36;;;;;;;2.47;1.60;;;;;;;;;;6996147;28;20059;-81
2021/07/06 08:19:59;;;;;;;1.90;1.50;;;;;;;;;;6996818;28;20262;-81
2021/07/06 08:23:20;;;;;;;5.15;1.80;;;;;;;;;;6996004;28;20044;-82
2021/07/06 08:26:40;;;;;;;2.88;1.75;;;;;;;;;;6993722;28;20139;-82
2021/07/06 08:30:01;;;;;;;3.35;1.70;;;;;;;;;;6992771;28;20972;-82
2021/07/06 08:33:21;;;;;;;2.97;1.40;;;;;;;;;;6996167;28;20056;-82
2021/07/06 08:36:42;;;;;;;5.78;1.70;;;;;;;;;;6993427;28;20069;-82
2021/07/06 08:40:05;;;;;;;4.28;1.75;;;;;;;;;;6993799;28;20064;-82
2021/07/06 08:43:25;;;;;;;3.65;1.92;;;;;;;;;;7006200;28;20045;-82
2021/07/06 08:46:46;;;;;;;4.97;1.40;;;;;;;;;;6996306;28;20131;-81
2021/07/06 08:50:08;;;;;;;2.90;1.67;;;;;;;;;;6996459;28;20087;-82
2021/07/06 08:53:28;;;;;;;3.25;1.48;;;;;;;;;;6996347;28;20052;-82
2021/07/06 08:56:49;;;;;;;1.80;1.70;;;;;;;;;;7004500;28;20138;-82
2021/07/06 09:00:12;;;;;;;3.95;1.50;;;;;;;;;;6995886;28;20379;-83
2021/07/06 09:03:53;;;;;;;4.30;1.33;;;;;;;;;;7014603;28;20113;-83
2021/07/06 09:07:14;;;;;;;2.20;1.52;;;;;;;;;;6993718;28;20060;-84
2021/07/06 09:10:39;;;;;;;1.40;1.23;;;;;;;;;;7001031;28;20044;-82
2021/07/06 09:14:09;;;;;;;1.30;1.20;;;;;;;;;;6992213;28;20041;-81
2021/07/06 09:17:30;;;;;;;2.60;1.42;;;;;;;;;;6988362;28;20049;-82
2021/07/06 09:21:12;;;;;;;1.88;1.60;;;;;;;;;;7001098;28;20125;-84
2021/07/06 09:24:33;;;;;;;3.13;1.58;;;;;;;;;;6992791;28;20041;-81
2021/07/06 09:27:53;;;;;;;2.03;1.50;;;;;;;;;;7001163;28;20082;-82
2021/07/06 09:31:21;;;;;;;3.25;1.50;;;;;;;;;;6977234;28;20049;-82
2021/07/06 09:34:42;;;;;;;6.33;1.90;;;;;;;;;;7002331;28;20134;-81
2021/07/06 09:38:04;;;;;;;3.75;1.48;;;;;;;;;;6993090;28;20040;-82
2021/07/06 09:41:24;;;;;;;2.55;1.50;;;;;;;;;;6994642;28;20052;-82
2021/07/06 09:44:45;;;;;;;1.85;1.30;;;;;;;;;;6999629;28;20080;-81
2021/07/06 09:48:06;;;;;;;2.70;1.50;;;;;;;;;;6990455;28;20391;-82
2021/07/06 09:51:27;;;;;;;1.75;1.20;;;;;;;;;;6976818;28;20478;-82
2021/07/06 09:54:51;;;;;;;3.42;1.40;;;;;;;;;;6979393;28;20147;-84
2021/07/06 09:58:12;;;;;;;1.45;1.35;;;;;;;;;;6972659;28;20048;-84
2021/07/06 10:01:32;;;;;;;2.00;1.35;;;;;;;;;;7005731;28;20120;-83
2021/07/06 10:04:54;;;;;;;2.70;1.30;;;;;;;;;;7004061;28;20041;-82
2021/07/06 10:08:15;;;;;;;1.77;1.40;;;;;;;;;;6999787;28;20037;-83
2021/07/06 10:11:35;;;;;;;2.13;1.30;;;;;;;;;;7003117;28;20052;-84
2021/07/06 10:14:56;;;;;;;5.78;1.80;;;;;;;;;;6986953;28;20048;-84
2021/07/06 10:18:16;;;;;;;3.53;1.38;;;;;;;;;;7002241;28;20040;-82
2021/07/06 10:21:36;;;;;;;1.17;1.13;;;;;;;;;;7001263;28;20066;-82
2021/07/06 10:25:00;;;;;;;5.50;1.20;;;;;;;;;;7005173;28;20052;-82
2021/07/06 10:28:21;;;;;;;2.90;1.38;;;;;;;;;;6997295;28;20414;-82
2021/07/06 10:31:43;;;;;;;2.30;1.25;;;;;;;;;;6996403;28;20479;-81
2021/07/06 10:35:05;;;;;;;1.90;1.13;;;;;;;;;;6994283;28;20142;-82
2021/07/06 10:38:29;;;;;;;3.30;1.20;;;;;;;;;;6995916;28;20518;-83
2021/07/06 10:41:52;;;;;;;2.10;1.67;;;;;;;;;;6997919;28;20056;-82
2021/07/06 10:45:16;;;;;;;1.52;1.30;;;;;;;;;;6996994;28;20063;-82
2021/07/06 10:48:43;;;;;;;1.45;1.27;;;;;;;;;;7007605;28;20085;-82
2021/07/06 10:52:05;;;;;;;1.33;1.13;;;;;;;;;;6985262;28;20106;-83
2021/07/06 10:55:33;;;;;;;1.35;1.20;;;;;;;;;;6991232;28;20075;-82
2021/07/06 10:58:55;;;;;;;1.48;1.38;;;;;;;;;;6995105;28;20041;-82
2021/07/06 11:02:26;;;;;;;1.10;1.10;;;;;;;;;;7007585;28;20466;-82
2021/07/06 11:05:47;;;;;;;1.40;1.30;;;;;;;;;;6995466;28;20064;-82
2021/07/06 11:09:07;;;;;;;2.08;1.27;;;;;;;;;;6996463;28;20044;-82
2021/07/06 11:12:38;;;;;;;1.50;1.40;;;;;;;;;;7000428;28;20402;-82
2021/07/06 11:16:01;;;;;;;2.47;1.30;;;;;;;;;;7000719;28;20098;-82
2021/07/06 11:19:33;;;;;;;2.03;1.55;;;;;;;;;;6998112;28;20044;-82
2021/07/06 11:22:55;;;;;;;5.10;1.42;;;;;;;;;;6987376;28;20044;-83
2021/07/06 11:26:20;;;;;;;1.45;1.30;;;;;;;;;;7008798;28;20082;-81
2021/07/06 11:29:42;;;;;;;1.30;1.10;;;;;;;;;;6994150;28;20072;-81
2021/07/06 11:33:22;;;;;;;2.05;1.50;;;;;;;;;;7006621;28;20383;-82
2021/07/06 11:36:42;;;;;;;3.13;1.33;;;;;;;;;;6999450;28;20044;-82
2021/07/06 11:40:03;;;;;;;2.72;1.50;;;;;;;;;;6993882;28;20070;-85
2021/07/06 11:43:26;;;;;;;2.42;1.30;;;;;;;;;;6995996;28;20402;-86
2021/07/06 11:46:46;;;;;;;1.50;1.15;;;;;;;;;;6977890;28;20094;-85
2021/07/06 11:50:24;;;;;;;3.08;1.50;;;;;;;;;;6995264;28;20048;-86
2021/07/06 11:53:46;;;;;;;2.55;1.50;;;;;;;;;;6996178;28;20049;-83
2021/07/06 11:57:07;;;;;;;2.13;1.40;;;;;;;;;;6995022;28;20053;-82
2021/07/06 12:00:31;;;;;;;1.80;1.10;;;;;;;;;;6997227;28;20048;-83
2021/07/06 12:03:52;;;;;;;3.08;1.27;;;;;;;;;;6990116;28;20052;-83
2021/07/06 12:07:13;;;;;;;1.70;1.38;;;;;;;;;;6998844;28;20080;-83
2021/07/06 12:11:00;;;;;;;3.70;1.30;;;;;;;;;;6995829;28;20066;-82
2021/07/06 12:14:20;;;;;;;2.67;1.30;;;;;;;;;;6987122;28;20045;-81
2021/07/06 12:17:48;;;;;;;1.35;1.25;;;;;;;;;;7009962;28;20055;-81
2021/07/06 12:21:08;;;;;;;2.35;1.40;;;;;;;;;;6994768;28;20460;-81
2021/07/06 12:24:31;;;;;;;1.92;1.38;;;;;;;;;;6995779;28;20510;-83
2021/07/06 12:27:52;;;;;;;5.30;1.63;;;;;;;;;;6990001;28;20053;-83
2021/07/06 12:31:29;;;;;;;4.20;1.42;;;;;;;;;;7008407;28;20399;-82
2021/07/06 12:34:57;;;;;;;8.55;1.98;;;;;;;;;;7012255;28;20051;-83
2021/07/06 12:38:17;;;;;;;4.85;1.67;;;;;;;;;;7001392;28;20581;-82
2021/07/06 12:41:49;;;;;;;1.95;1.35;;;;;;;;;;7007481;28;20040;-83
2021/07/06 12:45:11;;;;;;;3.17;1.63;;;;;;;;;;6993083;28;20040;-83
2021/07/06 12:48:32;;;;;;;3.25;1.38;;;;;;;;;;7004534;28;20072;-81
2021/07/06 12:51:59;;;;;;;4.88;1.80;;;;;;;;;;6997626;28;20044;-80
2021/07/06 12:55:21;;;;;;;4.93;1.63;;;;;;;;;;6996580;28;20094;-78
2021/07/06 12:58:41;;;;;;;6.60;1.85;;;;;;;;;;7009484;28;20048;-80
2021/07/06 13:02:22;;;;;;;3.53;1.58;;;;;;;;;;6985157;28;20059;-79
2021/07/06 13:05:46;;;;;;;4.80;1.80;;;;;;;;;;6995036;28;20048;-79
2021/07/06 13:09:06;;;;;;;2.72;1.73;;;;;;;;;;6987647;28;20041;-79
2021/07/06 13:12:27;;;;;;;4.80;1.77;;;;;;;;;;7018296;28;20159;-79
2021/07/06 13:15:49;;;;;;;4.00;1.77;;;;;;;;;;7017377;28;20109;-79
2021/07/06 13:19:20;;;;;;;2.17;1.70;;;;;;;;;;7020542;28;20044;-79
2021/07/06 13:22:42;;;;;;;4.88;1.83;;;;;;;;;;7021254;28;20041;-79
2021/07/06 13:26:03;;;;;;;4.35;1.63;;;;;;;;;;7025369;22;20060;-81
2021/07/06 13:29:24;;;;;;;1.55;1.45;;;;;;;;;;6967539;28;20049;-80
2021/07/06 13:32:46;;;;;;;4.30;1.63;;;;;;;;;;6969059;28;20043;-79
2021/07/06 13:36:07;;;;;;;3.10;1.77;;;;;;;;;;6970903;28;20033;-81
2021/07/06 13:39:27;;;;;;;1.65;1.50;;;;;;;;;;6972796;28;20102;-82
2021/07/06 13:42:47;;;;;;;2.90;1.55;;;;;;;;;;6974581;28;20072;-80
2021/07/06 13:46:08;;;;;;;2.63;1.73;;;;;;;;;;6983978;28;20410;-81
2021/07/06 13:49:28;;;;;;;2.83;1.48;;;;;;;;;;6977317;28;20041;-81
2021/07/06 13:52:50;;;;;;;2.63;1.50;;;;;;;;;;6981946;28;20052;-82
2021/07/06 13:56:11;;;;;;;3.20;1.45;;;;;;;;;;6976105;28;20076;-81
2021/07/06 13:59:31;;;;;;;1.60;1.33;;;;;;;;;;6971461;28;20048;-81
2021/07/06 14:02:58;;;;;;;1.80;1.40;;;;;;;;;;6982830;28;20139;-81
2021/07/06 14:06:19;;;;;;;2.22;1.35;;;;;;;;;;6977281;28;20065;-81
2021/07/06 14:09:40;;;;;;;2.58;1.70;;;;;;;;;;6991505;28;20175;-81
2021/07/06 14:13:00;;;;;;;1.67;1.55;;;;;;;;;;6984816;28;20509;-80
2021/07/06 14:16:21;;;;;;;4.13;1.40;;;;;;;;;;6981862;28;20127;-80
2021/07/06 14:19:41;;;;;;;2.47;1.30;;;;;;;;;;6989734;28;20442;-80
2021/07/06 14:23:08;;;;;;;1.70;1.33;;;;;;;;;;6972625;28;20068;-79
2021/07/06 14:26:29;;;;;;;1.73;1.20;;;;;;;;;;6985679;28;20045;-79
2021/07/06 14:29:49;;;;;;;4.80;1.50;;;;;;;;;;6982673;28;20075;-78
2021/07/06 14:33:10;;;;;;;1.70;1.50;;;;;;;;;;6988926;28;20045;-79
2021/07/06 14:36:31;;;;;;;2.22;1.60;;;;;;;;;;6988420;28;20049;-79
2021/07/06 14:39:51;;;;;;;3.63;1.50;;;;;;;;;;6986452;28;20052;-79
2021/07/06 14:43:11;;;;;;;2.08;1.40;;;;;;;;;;6973912;28;20041;-79
2021/07/06 14:46:32;;;;;;;3.13;1.40;;;;;;;;;;6996588;28;20138;-79
2021/07/06 14:49:53;;;;;;;4.63;2.13;;;;;;;;;;6987752;28;20387;-80
2021/07/06 14:53:14;;;;;;;1.45;1.35;;;;;;;;;;6986068;28;20052;-79
2021/07/06 14:56:34;;;;;;;1.85;1.30;;;;;;;;;;6983876;28;20068;-79
2021/07/06 14:59:55;;;;;;;2.63;1.33;;;;;;;;;;6974631;28;20981;-80
2021/07/06 15:03:15;;;;;;;1.63;1.35;;;;;;;;;;6996910;28;20040;-80
2021/07/06 15:06:36;;;;;;;1.95;1.20;;;;;;;;;;6989429;28;20048;-79
2021/07/06 15:09:56;;;;;;;2.08;1.30;;;;;;;;;;6970626;28;20049;-79
2021/07/06 15:13:16;;;;;;;6.03;1.27;;;;;;;;;;6983515;28;20494;-79
2021/07/06 15:16:37;;;;;;;1.52;1.42;;;;;;;;;;6970028;28;20076;-79
2021/07/06 15:19:58;;;;;;;1.90;1.30;;;;;;;;;;6976799;28;20055;-79
2021/07/06 15:23:18;;;;;;;1.42;1.33;;;;;;;;;;6977509;28;20048;-79
2021/07/06 15:26:39;;;;;;;3.72;1.20;;;;;;;;;;6983196;28;20095;-79
2021/07/06 15:29:59;;;;;;;1.75;1.08;;;;;;;;;;6969596;28;20047;-79
2021/07/06 15:33:20;;;;;;;1.65;1.33;;;;;;;;;;6970269;28;20084;-79
2021/07/06 15:36:40;;;;;;;1.50;1.15;;;;;;;;;;6969832;28;20041;-79
2021/07/06 15:40:01;;;;;;;2.03;1.52;;;;;;;;;;6974768;28;20139;-78
2021/07/06 15:43:21;;;;;;;1.25;1.13;;;;;;;;;;6983253;28;20037;-79
2021/07/06 15:46:42;;;;;;;1.42;1.20;;;;;;;;;;6980063;28;20040;-80
2021/07/06 15:50:03;;;;;;;3.60;1.77;;;;;;;;;;6967795;28;20143;-78
2021/07/06 15:53:23;;;;;;;2.53;1.50;;;;;;;;;;6981603;28;20048;-79
2021/07/06 15:56:46;;;;;;;5.18;1.40;;;;;;;;;;6969187;28;20048;-79
2021/07/06 16:00:09;;;;;;;6.57;1.77;;;;;;;;;;6969256;28;20505;-80
2021/07/06 16:03:29;;;;;;;8.18;1.58;;;;;;;;;;6984046;28;20057;-79
2021/07/06 16:06:50;;;;;;;2.40;1.50;;;;;;;;;;6990852;28;20146;-79
2021/07/06 16:10:12;;;;;;;2.65;1.50;;;;;;;;;;6972447;28;20491;-79
2021/07/06 16:13:32;;;;;;;2.75;1.30;;;;;;;;;;6968936;28;20076;-79
2021/07/06 16:16:52;;;;;;;4.47;1.52;;;;;;;;;;6968798;28;20041;-79
2021/07/06 16:20:13;;;;;;;5.45;1.50;;;;;;;;;;6976633;28;20098;-79
2021/07/06 16:23:34;;;;;;;4.43;1.20;;;;;;;;;;6973847;28;20107;-79
2021/07/06 16:26:54;;;;;;;4.78;1.52;;;;;;;;;;6968189;28;20140;-79
2021/07/06 16:30:17;;;;;;;2.22;1.30;;;;;;;;;;6981787;28;20076;-79
2021/07/06 16:33:37;;;;;;;1.30;1.20;;;;;;;;;;6968466;28;20061;-79
2021/07/06 16:36:57;;;;;;;2.25;1.23;;;;;;;;;;6968816;28;20079;-79
2021/07/06 16:40:18;;;;;;;1.67;1.30;;;;;;;;;;6968640;28;20064;-79
2021/07/06 16:43:42;;;;;;;3.47;1.42;;;;;;;;;;6968193;28;20047;-79
2021/07/06 16:47:03;;;;;;;1.70;1.20;;;;;;;;;;6980840;28;20045;-80
2021/07/06 16:50:23;;;;;;;2.50;1.10;;;;;;;;;;6982905;28;20136;-81
2021/07/06 18:00:18;;;;;;;2.70;1.10;;;;;;;;;;6673602;29;20054;-81
2021/07/06 18:03:39;;;;;;;1.88;1.33;;;;;;;;;;6701580;29;20064;-80
2021/07/06 18:06:59;;;;;;;1.73;1.20;;;;;;;;;;6735151;29;20055;-80
2021/07/06 18:10:19;;;;;;;1.80;1.13;;;;;;;;;;6800356;29;20079;-80
2021/07/06 18:13:43;;;;;;;1.92;1.20;;;;;;;;;;6802216;29;20055;-80
2021/07/06 18:17:04;;;;;;;1.27;1.17;;;;;;;;;;6815911;28;20441;-80
2021/07/06 18:20:24;;;;;;;2.35;1.30;;;;;;;;;;6864386;28;20194;-78
2021/07/06 18:23:45;;;;;;;1.20;1.10;;;;;;;;;;6877269;28;20054;-79
2021/07/06 18:27:05;;;;;;;1.58;1.13;;;;;;;;;;6863279;28;20097;-78
2021/07/06 18:30:26;;;;;;;25.20;1.60;;;;;;;;;;6854030;28;20552;-78
2021/07/06 18:33:47;;;;;;;1.85;1.15;;;;;;;;;;6934464;28;20461;-78
2021/07/06 18:37:07;;;;;;;3.28;1.25;;;;;;;;;;6994261;28;20051;-78
2021/07/06 18:40:37;;;;;;;1.52;1.40;;;;;;;;;;6988852;28;20135;-79
2021/07/06 18:43:59;;;;;;;2.97;1.17;;;;;;;;;;6977446;28;20417;-79
2021/07/06 18:47:20;;;;;;;1.48;1.35;;;;;;;;;;6986772;28;20398;-79
2021/07/06 18:50:40;;;;;;;1.30;1.10;;;;;;;;;;6983455;28;20500;-79
2021/07/06 18:54:01;;;;;;;0.73;0.73;;;;;;;;;;6976667;28;20044;-80
2021/07/06 18:57:27;;;;;;;0.90;0.90;;;;;;;;;;6977930;28;20403;-80
2021/07/06 19:00:48;;;;;;;1.00;0.98;;;;;;;;;;6981531;28;20490;-80
2021/07/06 19:04:08;;;;;;;1.05;0.93;;;;;;;;;;6982707;28;20045;-82
2021/07/06 19:07:29;;;;;;;1.05;0.95;;;;;;;;;;6978602;28;20048;-80
2021/07/06 19:10:50;;;;;;;1.10;1.00;;;;;;;;;;6988422;28;20075;-80
2021/07/06 19:14:10;;;;;;;3.00;1.65;;;;;;;;;;6982617;28;20044;-81
2021/07/06 19:17:30;;;;;;;4.78;1.85;;;;;;;;;;6991052;28;20061;-81
2021/07/06 19:20:51;;;;;;;6.18;1.70;;;;;;;;;;6983446;28;20053;-82
2021/07/06 19:24:57;;;;;;;2.47;1.50;;;;;;;;;;6991142;28;20129;-81
2021/07/06 19:31:43;;;;;;;2.75;1.67;;;;;;;;;;6981892;28;20048;-80
2021/07/06 19:35:04;;;;;;;4.88;1.92;;;;;;;;;;6989013;28;20079;-80
2021/07/06 19:38:25;;;;;;;2.95;1.90;;;;;;;;;;6978855;28;20055;-80
2021/07/06 19:41:45;;;;;;;2.70;1.80;;;;;;;;;;6983715;28;20041;-82
2021/07/06 19:45:06;;;;;;;2.08;1.83;;;;;;;;;;6980501;28;20037;-80
2021/07/06 19:48:28;;;;;;;3.42;1.63;;;;;;;;;;6982565;28;20048;-81
2021/07/06 19:51:49;;;;;;;5.50;1.88;;;;;;;;;;6981968;28;20391;-81
2021/07/06 19:55:10;;;;;;;3.70;1.80;;;;;;;;;;6980441;28;20060;-82
2021/07/06 19:58:30;;;;;;;4.60;1.70;;;;;;;;;;6974656;28;20052;-81
2021/07/06 20:01:51;;;;;;;3.63;2.03;;;;;;;;;;6978218;28;20705;-81
2021/07/06 20:05:12;;;;;;;1.60;1.50;;;;;;;;;;6973033;28;20049;-81
2021/07/06 20:08:32;;;;;;;2.03;1.60;;;;;;;;;;6978647;28;20139;-81
2021/07/06 20:11:53;;;;;;;2.28;1.50;;;;;;;;;;6972157;28;20037;-81
2021/07/06 20:15:14;;;;;;;2.38;1.50;;;;;;;;;;6969364;28;20394;-81
2021/07/06 20:18:36;;;;;;;3.05;1.92;;;;;;;;;;6968853;28;20055;-81
2021/07/06 20:21:56;;;;;;;3.25;1.90;;;;;;;;;;6969040;28;20057;-81
2021/07/06 20:25:17;;;;;;;14.93;2.67;;;;;;;;;;6969320;28;20048;-81
2021/07/06 20:28:38;;;;;;;7.20;2.25;;;;;;;;;;6976213;28;20490;-81
2021/07/06 20:31:58;;;;;;;4.47;2.20;;;;;;;;;;6968022;28;20053;-81
2021/07/06 20:35:19;;;;;;;2.55;2.03;;;;;;;;;;6979255;28;20139;-81
2021/07/06 20:38:39;;;;;;;7.03;2.17;;;;;;;;;;6980401;28;20040;-81
2021/07/06 20:42:00;;;;;;;5.10;2.53;;;;;;;;;;6971226;28;20131;-82
2021/07/06 20:45:20;;;;;;;6.85;2.50;;;;;;;;;;6980449;28;20048;-81
2021/07/06 20:48:41;;;;;;;2.47;2.10;;;;;;;;;;6974161;28;20151;-81
2021/07/06 20:52:01;;;;;;;5.57;2.00;;;;;;;;;;6983255;28;20074;-81
2021/07/06 20:55:22;;;;;;;4.05;2.65;;;;;;;;;;6972138;28;20387;-81
2021/07/06 20:58:44;;;;;;;6.15;2.60;;;;;;;;;;6971980;28;20394;-82
2021/07/06 21:02:05;;;;;;;6.53;2.97;;;;;;;;;;6985153;28;21034;-81
2021/07/06 21:05:25;;;;;;;3.53;2.67;;;;;;;;;;6968205;28;20166;-81
2021/07/06 21:08:46;;;;;;;5.00;2.75;;;;;;;;;;6968227;28;20095;-81
2021/07/06 21:12:06;;;;;;;5.40;2.78;;;;;;;;;;6982118;28;20053;-81
2021/07/06 21:15:27;;;;;;;3.45;2.90;;;;;;;;;;6968036;28;20052;-83
2021/07/06 21:18:48;;;;;;;5.68;2.78;;;;;;;;;;6967970;28;20403;-81